sensor_id;sensor_type;location;lat;lon;timestamp;pressure;altitude;pressure_sealevel;temperature;humidity
70781;BME280;59514;48.810;2.134;2022-07-23T00:01:57;100542.28;;;19.72;90.33
70781;BME280;59514;48.810;2.134;2022-07-23T00:04:23;100536.84;;;19.72;90.27
70781;BME280;59514;48.810;2.134;2022-07-23T00:06:48;100545.09;;;19.57;90.60
70781;BME280;59514;48.810;2.134;2022-07-23T00:09:13;100537.44;;;19.59;90.42
70781;BME280;59514;48.810;2.134;2022-07-23T00:11:39;100545.69;;;19.44;91.25
70781;BME280;59514;48.810;2.134;2022-07-23T00:14:04;100547.78;;;19.62;90.59
70781;BME280;59514;48.810;2.134;2022-07-23T00:16:29;100542.41;;;19.52;90.63
70781;BME280;59514;48.810;2.134;2022-07-23T00:18:55;100554.38;;;19.56;90.97
70781;BME280;59514;48.810;2.134;2022-07-23T00:21:20;100547.84;;;19.47;91.41
70781;BME280;59514;48.810;2.134;2022-07-23T00:23:46;100554.09;;;19.53;91.24
70781;BME280;59514;48.810;2.134;2022-07-23T00:26:11;100546.44;;;19.55;90.79
70781;BME280;59514;48.810;2.134;2022-07-23T00:28:36;100547.78;;;19.62;90.26
70781;BME280;59514;48.810;2.134;2022-07-23T00:31:02;100548.09;;;19.51;90.68
70781;BME280;59514;48.810;2.134;2022-07-23T00:33:27;100552.25;;;19.28;91.92
70781;BME280;59514;48.810;2.134;2022-07-23T00:35:53;100546.81;;;19.23;91.54
70781;BME280;59514;48.810;2.134;2022-07-23T00:38:18;100532.38;;;19.33;91.78
70781;BME280;59514;48.810;2.134;2022-07-23T00:40:43;100540.25;;;19.44;91.16
70781;BME280;59514;48.810;2.134;2022-07-23T00:43:09;100537.50;;;19.49;90.43
70781;BME280;59514;48.810;2.134;2022-07-23T00:45:34;100540.50;;;19.43;90.92
70781;BME280;59514;48.810;2.134;2022-07-23T00:48:00;100541.31;;;19.48;90.44
70781;BME280;59514;48.810;2.134;2022-07-23T00:50:26;100546.19;;;19.51;90.23
70781;BME280;59514;48.810;2.134;2022-07-23T00:52:52;100540.78;;;19.46;90.64
70781;BME280;59514;48.810;2.134;2022-07-23T00:55:17;100540.81;;;19.36;91.17
70781;BME280;59514;48.810;2.134;2022-07-23T00:57:43;100536.47;;;19.40;90.84
70781;BME280;59514;48.810;2.134;2022-07-23T01:00:11;100531.03;;;19.25;91.47
70781;BME280;59514;48.810;2.134;2022-07-23T01:02:37;100528.28;;;19.30;91.89
70781;BME280;59514;48.810;2.134;2022-07-23T01:05:03;100530.69;;;19.47;91.50
70781;BME280;59514;48.810;2.134;2022-07-23T01:07:28;100534.03;;;19.34;91.68
70781;BME280;59514;48.810;2.134;2022-07-23T01:09:54;100537.53;;;19.39;91.79
70781;BME280;59514;48.810;2.134;2022-07-23T01:12:20;100534.31;;;19.22;92.42
70781;BME280;59514;48.810;2.134;2022-07-23T01:14:56;100535.38;;;19.36;92.45
70781;BME280;59514;48.810;2.134;2022-07-23T01:17:21;100527.75;;;19.28;92.36
70781;BME280;59514;48.810;2.134;2022-07-23T01:19:47;100533.19;;;19.33;92.31
70781;BME280;59514;48.810;2.134;2022-07-23T01:22:13;100537.25;;;19.41;92.13
70781;BME280;59514;48.810;2.134;2022-07-23T01:24:39;100531.56;;;19.37;92.09
70781;BME280;59514;48.810;2.134;2022-07-23T01:27:05;100533.19;;;19.38;92.51
70781;BME280;59514;48.810;2.134;2022-07-23T01:29:30;100530.97;;;19.45;91.96
70781;BME280;59514;48.810;2.134;2022-07-23T01:31:56;100528.00;;;19.42;91.80
70781;BME280;59514;48.810;2.134;2022-07-23T01:34:21;100520.94;;;19.26;92.82
70781;BME280;59514;48.810;2.134;2022-07-23T01:36:47;100519.25;;;19.45;92.13
70781;BME280;59514;48.810;2.134;2022-07-23T01:39:12;100518.44;;;19.49;91.68
70781;BME280;59514;48.810;2.134;2022-07-23T01:41:37;100520.06;;;19.45;91.93
70781;BME280;59514;48.810;2.134;2022-07-23T01:44:03;100521.97;;;19.50;91.87
70781;BME280;59514;48.810;2.134;2022-07-23T01:46:28;100519.50;;;19.53;91.68
70781;BME280;59514;48.810;2.134;2022-07-23T01:48:53;100526.06;;;19.52;91.79
70781;BME280;59514;48.810;2.134;2022-07-23T01:51:19;100527.47;;;19.40;92.84
70781;BME280;59514;48.810;2.134;2022-07-23T01:53:44;100518.72;;;19.43;92.69
70781;BME280;59514;48.810;2.134;2022-07-23T01:56:09;100521.75;;;19.31;93.36
70781;BME280;59514;48.810;2.134;2022-07-23T01:58:35;100521.47;;;19.33;93.05
70781;BME280;59514;48.810;2.134;2022-07-23T02:01:00;100516.66;;;19.15;94.47
70781;BME280;59514;48.810;2.134;2022-07-23T02:03:26;100514.69;;;19.30;93.76
70781;BME280;59514;48.810;2.134;2022-07-23T02:05:51;100517.94;;;19.42;93.40
70781;BME280;59514;48.810;2.134;2022-07-23T02:08:17;100521.44;;;19.43;93.08
70781;BME280;59514;48.810;2.134;2022-07-23T02:10:43;100522.84;;;19.40;93.27
70781;BME280;59514;48.810;2.134;2022-07-23T02:13:08;100522.03;;;19.30;93.78
70781;BME280;59514;48.810;2.134;2022-07-23T02:15:34;100526.69;;;19.34;93.58
70781;BME280;59514;48.810;2.134;2022-07-23T02:18:00;100530.44;;;19.43;93.31
70781;BME280;59514;48.810;2.134;2022-07-23T02:20:25;100529.34;;;19.44;92.96
70781;BME280;59514;48.810;2.134;2022-07-23T02:22:51;100529.34;;;19.44;93.03
70781;BME280;59514;48.810;2.134;2022-07-23T02:25:16;100530.97;;;19.45;93.23
70781;BME280;59514;48.810;2.134;2022-07-23T02:27:42;100537.00;;;19.42;93.46
70781;BME280;59514;48.810;2.134;2022-07-23T02:30:08;100537.50;;;19.49;93.32
70781;BME280;59514;48.810;2.134;2022-07-23T02:32:33;100535.84;;;19.53;92.78
70781;BME280;59514;48.810;2.134;2022-07-23T02:34:59;100542.94;;;19.49;93.25
70781;BME280;59514;48.810;2.134;2022-07-23T02:37:24;100541.63;;;19.42;93.02
70781;BME280;59514;48.810;2.134;2022-07-23T02:39:50;100546.03;;;19.18;94.81
70781;BME280;59514;48.810;2.134;2022-07-23T02:42:15;100541.13;;;19.20;95.37
70781;BME280;59514;48.810;2.134;2022-07-23T02:44:41;100538.09;;;19.36;94.35
70781;BME280;59514;48.810;2.134;2022-07-23T02:47:06;100542.41;;;19.47;93.82
70781;BME280;59514;48.810;2.134;2022-07-23T02:49:31;100542.41;;;19.52;93.05
70781;BME280;59514;48.810;2.134;2022-07-23T02:51:57;100542.69;;;19.46;93.76
70781;BME280;59514;48.810;2.134;2022-07-23T02:54:22;100552.25;;;19.28;94.03
70781;BME280;59514;48.810;2.134;2022-07-23T02:56:47;100555.56;;;19.20;95.13
70781;BME280;59514;48.810;2.134;2022-07-23T02:59:13;100557.13;;;19.31;94.64
70781;BME280;59514;48.810;2.134;2022-07-23T03:01:38;100549.50;;;19.43;94.64
70781;BME280;59514;48.810;2.134;2022-07-23T03:04:04;100558.75;;;19.47;93.77
70781;BME280;59514;48.810;2.134;2022-07-23T03:06:29;100557.69;;;19.38;94.15
70781;BME280;59514;48.810;2.134;2022-07-23T03:08:54;100564.78;;;19.19;95.30
70781;BME280;59514;48.810;2.134;2022-07-23T03:11:20;100568.09;;;19.16;95.50
70781;BME280;59514;48.810;2.134;2022-07-23T03:13:45;100564.50;;;19.31;94.42
70781;BME280;59514;48.810;2.134;2022-07-23T03:16:11;100557.41;;;19.40;94.08
70781;BME280;59514;48.810;2.134;2022-07-23T03:18:36;100560.97;;;19.40;94.01
70781;BME280;59514;48.810;2.134;2022-07-23T03:21:02;100556.59;;;19.44;93.52
70781;BME280;59514;48.810;2.134;2022-07-23T03:23:28;100566.41;;;19.30;93.81
70781;BME280;59514;48.810;2.134;2022-07-23T03:25:53;100565.09;;;19.13;94.71
70781;BME280;59514;48.810;2.134;2022-07-23T03:28:19;100564.00;;;19.19;94.72
70781;BME280;59514;48.810;2.134;2022-07-23T03:30:45;100562.31;;;19.28;94.56
70781;BME280;59514;48.810;2.134;2022-07-23T03:33:16;100568.59;;;19.33;94.04
70781;BME280;59514;48.810;2.134;2022-07-23T03:35:43;100565.88;;;19.33;94.51
70781;BME280;59514;48.810;2.134;2022-07-23T03:38:08;100573.50;;;19.21;94.69
70781;BME280;59514;48.810;2.134;2022-07-23T03:40:34;100578.94;;;19.26;94.25
70781;BME280;59514;48.810;2.134;2022-07-23T03:42:59;100578.91;;;19.31;94.38
70781;BME280;59514;48.810;2.134;2022-07-23T03:45:25;100588.19;;;19.30;94.24
70781;BME280;59514;48.810;2.134;2022-07-23T03:47:50;100584.38;;;19.31;94.31
70781;BME280;59514;48.810;2.134;2022-07-23T03:50:15;100577.03;;;19.37;94.07
70781;BME280;59514;48.810;2.134;2022-07-23T03:52:41;100581.38;;;19.33;94.18
70781;BME280;59514;48.810;2.134;2022-07-23T03:55:07;100582.75;;;19.25;94.14
70781;BME280;59514;48.810;2.134;2022-07-23T03:57:32;100590.41;;;19.18;95.20
70781;BME280;59514;48.810;2.134;2022-07-23T03:59:58;100589.31;;;19.24;94.69
70781;BME280;59514;48.810;2.134;2022-07-23T04:02:23;100593.91;;;19.24;94.30
70781;BME280;59514;48.810;2.134;2022-07-23T04:04:49;100591.19;;;19.24;94.08
70781;BME280;59514;48.810;2.134;2022-07-23T04:07:14;100599.91;;;19.31;94.02
70781;BME280;59514;48.810;2.134;2022-07-23T04:09:39;100598.28;;;19.20;94.66
70781;BME280;59514;48.810;2.134;2022-07-23T04:12:06;100594.19;;;19.17;94.81
70781;BME280;59514;48.810;2.134;2022-07-23T04:14:32;100601.28;;;19.18;94.86
70781;BME280;59514;48.810;2.134;2022-07-23T04:16:57;100602.66;;;19.06;94.46
70781;BME280;59514;48.810;2.134;2022-07-23T04:19:23;100598.84;;;19.17;94.60
70781;BME280;59514;48.810;2.134;2022-07-23T04:21:49;100597.22;;;19.21;93.54
70781;BME280;59514;48.810;2.134;2022-07-23T04:24:14;100595.34;;;18.91;95.13
70781;BME280;59514;48.810;2.134;2022-07-23T04:26:40;100597.53;;;18.94;94.61
70781;BME280;59514;48.810;2.134;2022-07-23T04:29:05;100598.59;;;19.03;94.47
70781;BME280;59514;48.810;2.134;2022-07-23T04:31:30;100598.03;;;19.01;93.76
70781;BME280;59514;48.810;2.134;2022-07-23T04:33:56;100595.88;;;18.98;94.38
70781;BME280;59514;48.810;2.134;2022-07-23T04:36:21;100591.53;;;19.02;94.04
70781;BME280;59514;48.810;2.134;2022-07-23T04:38:46;100595.63;;;19.05;93.82
70781;BME280;59514;48.810;2.134;2022-07-23T04:41:12;100603.50;;;18.86;94.09
70781;BME280;59514;48.810;2.134;2022-07-23T04:43:37;100596.41;;;18.95;93.76
70781;BME280;59514;48.810;2.134;2022-07-23T04:46:02;100612.19;;;19.08;93.15
70781;BME280;59514;48.810;2.134;2022-07-23T04:48:28;100609.44;;;19.13;92.75
70781;BME280;59514;48.810;2.134;2022-07-23T04:50:53;100602.69;;;19.11;92.71
70781;BME280;59514;48.810;2.134;2022-07-23T04:53:18;100605.09;;;19.07;91.79
70781;BME280;59514;48.810;2.134;2022-07-23T04:55:45;100606.72;;;19.13;92.58
70781;BME280;59514;48.810;2.134;2022-07-23T04:58:10;100618.16;;;19.20;92.16
70781;BME280;59514;48.810;2.134;2022-07-23T05:00:36;100621.72;;;19.11;91.73
70781;BME280;59514;48.810;2.134;2022-07-23T05:03:01;100621.44;;;19.17;91.93
70781;BME280;59514;48.810;2.134;2022-07-23T05:05:26;100624.44;;;19.16;91.53
70781;BME280;59514;48.810;2.134;2022-07-23T05:07:52;100617.06;;;19.11;91.23
70781;BME280;59514;48.810;2.134;2022-07-23T05:10:17;100620.09;;;19.00;92.07
70781;BME280;59514;48.810;2.134;2022-07-23T05:12:42;100619.81;;;19.06;91.85
70781;BME280;59514;48.810;2.134;2022-07-23T05:15:08;100614.91;;;19.03;91.62
70781;BME280;59514;48.810;2.134;2022-07-23T05:17:33;100618.78;;;18.87;91.68
70781;BME280;59514;48.810;2.134;2022-07-23T05:19:58;100616.81;;;18.98;92.57
70781;BME280;59514;48.810;2.134;2022-07-23T05:22:24;100618.47;;;19.09;91.72
70781;BME280;59514;48.810;2.134;2022-07-23T05:24:49;100608.94;;;19.01;91.29
70781;BME280;59514;48.810;2.134;2022-07-23T05:27:14;100618.75;;;18.92;92.16
70781;BME280;59514;48.810;2.134;2022-07-23T05:29:40;100617.09;;;18.91;92.23
70781;BME280;59514;48.810;2.134;2022-07-23T05:32:05;100623.94;;;18.88;92.59
70781;BME280;59514;48.810;2.134;2022-07-23T05:34:30;100625.28;;;18.96;92.19
70781;BME280;59514;48.810;2.134;2022-07-23T05:36:56;100623.34;;;19.02;91.85
70781;BME280;59514;48.810;2.134;2022-07-23T05:39:21;100619.00;;;19.06;91.92
70781;BME280;59514;48.810;2.134;2022-07-23T05:41:47;100618.75;;;18.92;91.98
70781;BME280;59514;48.810;2.134;2022-07-23T05:44:12;100623.94;;;18.88;92.79
70781;BME280;59514;48.810;2.134;2022-07-23T05:46:37;100622.53;;;19.01;92.39
70781;BME280;59514;48.810;2.134;2022-07-23T05:49:03;100624.19;;;18.92;92.46
70781;BME280;59514;48.810;2.134;2022-07-23T05:51:28;100635.91;;;18.92;92.48
70781;BME280;59514;48.810;2.134;2022-07-23T05:53:53;100625.84;;;18.83;93.63
70781;BME280;59514;48.810;2.134;2022-07-23T05:56:19;100632.09;;;18.78;93.80
70781;BME280;59514;48.810;2.134;2022-07-23T05:58:45;100630.72;;;18.86;93.43
70781;BME280;59514;48.810;2.134;2022-07-23T06:01:10;100637.50;;;18.63;94.28
70781;BME280;59514;48.810;2.134;2022-07-23T06:03:37;100632.91;;;18.64;93.76
70781;BME280;59514;48.810;2.134;2022-07-23T06:06:02;100632.38;;;18.67;94.58
70781;BME280;59514;48.810;2.134;2022-07-23T06:08:28;100639.16;;;18.79;93.57
70781;BME280;59514;48.810;2.134;2022-07-23T06:10:53;100639.44;;;18.73;93.98
70781;BME280;59514;48.810;2.134;2022-07-23T06:13:18;100639.97;;;18.70;94.18
70781;BME280;59514;48.810;2.134;2022-07-23T06:15:44;100638.31;;;18.54;94.37
70781;BME280;59514;48.810;2.134;2022-07-23T06:18:09;100654.91;;;18.57;93.99
70781;BME280;59514;48.810;2.134;2022-07-23T06:20:35;100640.78;;;18.45;94.53
70781;BME280;59514;48.810;2.134;2022-07-23T06:23:00;100652.19;;;18.52;94.11
70781;BME280;59514;48.810;2.134;2022-07-23T06:25:25;100648.94;;;18.45;93.12
70781;BME280;59514;48.810;2.134;2022-07-23T06:27:51;100650.81;;;18.50;93.37
70781;BME280;59514;48.810;2.134;2022-07-23T06:30:16;100661.16;;;18.48;92.83
70781;BME280;59514;48.810;2.134;2022-07-23T06:32:42;100655.75;;;18.58;92.74
70781;BME280;59514;48.810;2.134;2022-07-23T06:35:09;100656.31;;;18.65;92.49
70781;BME280;59514;48.810;2.134;2022-07-23T06:37:34;100660.09;;;18.64;91.68
70781;BME280;59514;48.810;2.134;2022-07-23T06:39:59;100654.56;;;18.34;93.21
70781;BME280;59514;48.810;2.134;2022-07-23T06:42:24;100659.50;;;18.37;92.83
70781;BME280;59514;48.810;2.134;2022-07-23T06:44:50;100659.94;;;18.14;94.49
70781;BME280;59514;48.810;2.134;2022-07-23T06:47:15;100660.56;;;18.31;93.59
70781;BME280;59514;48.810;2.134;2022-07-23T06:49:40;100660.56;;;18.31;92.81
70781;BME280;59514;48.810;2.134;2022-07-23T06:52:07;100654.59;;;18.39;92.92
70781;BME280;59514;48.810;2.134;2022-07-23T06:54:32;100669.00;;;18.29;92.45
70781;BME280;59514;48.810;2.134;2022-07-23T06:56:57;100663.00;;;18.32;93.05
70781;BME280;59514;48.810;2.134;2022-07-23T06:59:23;100669.81;;;18.40;92.81
70781;BME280;59514;48.810;2.134;2022-07-23T07:01:48;100662.81;;;18.54;91.58
70781;BME280;59514;48.810;2.134;2022-07-23T07:04:13;100670.16;;;18.63;91.85
70781;BME280;59514;48.810;2.134;2022-07-23T07:06:39;100670.44;;;18.72;91.26
70781;BME280;59514;48.810;2.134;2022-07-23T07:09:04;100676.41;;;18.64;91.29
70781;BME280;59514;48.810;2.134;2022-07-23T07:11:29;100683.50;;;18.55;91.24
70781;BME280;59514;48.810;2.134;2022-07-23T07:13:54;100688.91;;;18.45;91.41
70781;BME280;59514;48.810;2.134;2022-07-23T07:16:20;100693.22;;;18.41;91.82
70781;BME280;59514;48.810;2.134;2022-07-23T07:18:45;100694.88;;;18.52;91.70
70781;BME280;59514;48.810;2.134;2022-07-23T07:21:11;100697.09;;;18.70;90.42
70781;BME280;59514;48.810;2.134;2022-07-23T07:23:36;100706.88;;;18.61;90.73
70781;BME280;59514;48.810;2.134;2022-07-23T07:26:02;100706.06;;;18.65;90.05
70781;BME280;59514;48.810;2.134;2022-07-23T07:28:27;100706.34;;;18.59;90.48
70781;BME280;59514;48.810;2.134;2022-07-23T07:30:53;100713.94;;;18.47;91.08
70781;BME280;59514;48.810;2.134;2022-07-23T07:33:18;100714.69;;;18.42;91.13
70781;BME280;59514;48.810;2.134;2022-07-23T07:35:44;100711.16;;;18.42;91.08
70781;BME280;59514;48.810;2.134;2022-07-23T07:38:09;100716.94;;;18.65;90.76
70781;BME280;59514;48.810;2.134;2022-07-23T07:40:34;100718.31;;;18.78;90.15
70781;BME280;59514;48.810;2.134;2022-07-23T07:43:00;100703.63;;;18.74;89.69
70781;BME280;59514;48.810;2.134;2022-07-23T07:45:26;100704.75;;;18.83;89.72
70781;BME280;59514;48.810;2.134;2022-07-23T07:47:52;100706.66;;;18.92;89.46
70781;BME280;59514;48.810;2.134;2022-07-23T07:50:19;100702.56;;;18.90;88.81
70781;BME280;59514;48.810;2.134;2022-07-23T07:52:44;100715.34;;;18.84;89.47
70781;BME280;59514;48.810;2.134;2022-07-23T07:55:10;100720.53;;;18.96;88.69
70781;BME280;59514;48.810;2.134;2022-07-23T07:57:36;100722.41;;;18.96;88.84
70781;BME280;59514;48.810;2.134;2022-07-23T08:00:06;100723.22;;;18.91;89.36
70781;BME280;59514;48.810;2.134;2022-07-23T08:02:47;100719.44;;;18.87;88.94
70781;BME280;59514;48.810;2.134;2022-07-23T08:05:14;100726.50;;;18.83;89.57
70781;BME280;59514;48.810;2.134;2022-07-23T08:07:40;100727.59;;;19.02;88.20
70781;BME280;59514;48.810;2.134;2022-07-23T08:10:09;100733.59;;;19.19;87.34
70781;BME280;59514;48.810;2.134;2022-07-23T08:12:42;100723.78;;;18.88;88.99
70781;BME280;59514;48.810;2.134;2022-07-23T08:15:10;100736.03;;;18.80;89.63
70781;BME280;59514;48.810;2.134;2022-07-23T08:17:36;100740.66;;;18.95;89.94
70781;BME280;59514;48.810;2.134;2022-07-23T08:20:03;100741.50;;;19.01;89.33
70781;BME280;59514;48.810;2.134;2022-07-23T08:25:08;100739.31;;;19.08;89.38
70781;BME280;59514;48.810;2.134;2022-07-23T08:27:33;100741.75;;;19.19;88.50
70781;BME280;59514;48.810;2.134;2022-07-23T08:29:58;100745.03;;;19.16;87.87
70781;BME280;59514;48.810;2.134;2022-07-23T08:32:24;100751.56;;;19.00;88.64
70781;BME280;59514;48.810;2.134;2022-07-23T08:34:49;100756.97;;;19.05;88.00
70781;BME280;59514;48.810;2.134;2022-07-23T08:37:14;100749.38;;;19.02;88.52
70781;BME280;59514;48.810;2.134;2022-07-23T08:39:39;100756.44;;;19.03;88.25
70781;BME280;59514;48.810;2.134;2022-07-23T08:42:06;100762.44;;;19.00;88.36
70781;BME280;59514;48.810;2.134;2022-07-23T08:44:34;100755.34;;;19.09;88.00
70781;BME280;59514;48.810;2.134;2022-07-23T08:47:00;100769.25;;;19.28;87.70
70781;BME280;59514;48.810;2.134;2022-07-23T08:49:26;100762.50;;;19.40;86.74
70781;BME280;59514;48.810;2.134;2022-07-23T08:51:52;100768.72;;;19.31;86.84
70781;BME280;59514;48.810;2.134;2022-07-23T08:54:17;100772.25;;;19.26;86.75
70781;BME280;59514;48.810;2.134;2022-07-23T08:56:43;100773.31;;;19.00;87.48
70781;BME280;59514;48.810;2.134;2022-07-23T08:59:08;100773.59;;;19.14;87.42
70781;BME280;59514;48.810;2.134;2022-07-23T09:01:34;100773.06;;;19.12;87.11
70781;BME280;59514;48.810;2.134;2022-07-23T09:04:01;100781.78;;;19.09;87.29
70781;BME280;59514;48.810;2.134;2022-07-23T09:06:26;100772.25;;;19.16;86.82
70781;BME280;59514;48.810;2.134;2022-07-23T09:08:51;100772.28;;;19.46;85.92
70781;BME280;59514;48.810;2.134;2022-07-23T09:11:17;100770.38;;;19.52;84.88
70781;BME280;59514;48.810;2.134;2022-07-23T09:13:47;100778.25;;;19.53;85.33
70781;BME280;59514;48.810;2.134;2022-07-23T09:16:19;100780.44;;;19.41;85.89
70781;BME280;59514;48.810;2.134;2022-07-23T09:18:46;100772.81;;;19.43;86.17
70781;BME280;59514;48.810;2.134;2022-07-23T09:21:17;100768.19;;;19.54;85.89
70781;BME280;59514;48.810;2.134;2022-07-23T09:23:50;100769.53;;;19.61;85.43
70781;BME280;59514;48.810;2.134;2022-07-23T09:36:43;100775.50;;;19.78;83.38
70781;BME280;59514;48.810;2.134;2022-07-23T09:39:09;100771.69;;;19.80;83.40
70781;BME280;59514;48.810;2.134;2022-07-23T09:41:39;100771.72;;;19.59;84.32
70781;BME280;59514;48.810;2.134;2022-07-23T09:44:09;100773.91;;;19.62;83.82
70781;BME280;59514;48.810;2.134;2022-07-23T09:46:35;100769.53;;;19.71;83.17
70781;BME280;59514;48.810;2.134;2022-07-23T09:49:10;100775.25;;;19.70;83.30
70781;BME280;59514;48.810;2.134;2022-07-23T09:51:49;100771.13;;;19.83;83.40
70781;BME280;59514;48.810;2.134;2022-07-23T09:56:49;100767.78;;;20.21;81.87
70781;BME280;59514;48.810;2.134;2022-07-23T09:59:16;100766.63;;;20.42;80.85
70781;BME280;59514;48.810;2.134;2022-07-23T10:01:44;100763.94;;;20.32;81.21
70781;BME280;59514;48.810;2.134;2022-07-23T10:04:11;100761.53;;;20.05;81.10
70781;BME280;59514;48.810;2.134;2022-07-23T10:06:39;100766.22;;;19.90;82.38
70781;BME280;59514;48.810;2.134;2022-07-23T10:09:04;100766.78;;;19.76;82.94
70781;BME280;59514;48.810;2.134;2022-07-23T10:11:31;100768.38;;;19.98;82.58
70781;BME280;59514;48.810;2.134;2022-07-23T10:13:58;100759.09;;;19.99;81.90
70781;BME280;59514;48.810;2.134;2022-07-23T10:16:27;100757.16;;;20.14;82.13
70781;BME280;59514;48.810;2.134;2022-07-23T10:18:52;100764.44;;;20.44;80.80
70781;BME280;59514;48.810;2.134;2022-07-23T10:21:45;100758.09;;;20.53;80.78
70781;BME280;59514;48.810;2.134;2022-07-23T10:30:02;100760.09;;;20.33;80.80
70781;BME280;59514;48.810;2.134;2022-07-23T10:32:56;100762.78;;;20.48;80.50
70781;BME280;59514;48.810;2.134;2022-07-23T10:35:37;100767.34;;;20.57;80.36
70781;BME280;59514;48.810;2.134;2022-07-23T10:38:29;100769.50;;;20.66;80.15
70781;BME280;59514;48.810;2.134;2022-07-23T10:40:58;100770.91;;;20.53;80.09
70781;BME280;59514;48.810;2.134;2022-07-23T10:43:24;100768.47;;;20.51;80.51
70781;BME280;59514;48.810;2.134;2022-07-23T10:45:50;100770.81;;;20.73;79.60
70781;BME280;59514;48.810;2.134;2022-07-23T10:48:23;100774.00;;;20.85;79.43
70781;BME280;59514;48.810;2.134;2022-07-23T10:51:20;100779.97;;;20.92;78.77
70781;BME280;59514;48.810;2.134;2022-07-23T10:56:48;100792.00;;;20.91;78.99
70781;BME280;59514;48.810;2.134;2022-07-23T10:59:04;100796.53;;;20.57;79.58
70781;BME280;59514;48.810;2.134;2022-07-23T11:01:37;100800.31;;;20.66;79.99
70781;BME280;59514;48.810;2.134;2022-07-23T11:04:03;100800.78;;;20.78;78.94
70781;BME280;59514;48.810;2.134;2022-07-23T11:09:38;100809.06;;;20.63;79.50
70781;BME280;59514;48.810;2.134;2022-07-23T11:17:25;100813.69;;;20.63;79.81
70781;BME280;59514;48.810;2.134;2022-07-23T11:25:01;100807.31;;;20.82;78.06
70781;BME280;59514;48.810;2.134;2022-07-23T11:27:44;100803.31;;;20.70;78.61
70781;BME280;59514;48.810;2.134;2022-07-23T11:35:40;100800.88;;;21.12;77.26
70781;BME280;59514;48.810;2.134;2022-07-23T11:40:44;100806.47;;;20.92;77.22
70781;BME280;59514;48.810;2.134;2022-07-23T11:43:10;100806.94;;;20.99;76.57
70781;BME280;59514;48.810;2.134;2022-07-23T11:45:44;100808.28;;;21.06;76.50
70781;BME280;59514;48.810;2.134;2022-07-23T11:48:21;100809.94;;;21.07;77.09
70781;BME280;59514;48.810;2.134;2022-07-23T11:50:47;100808.28;;;21.11;76.96
70781;BME280;59514;48.810;2.134;2022-07-23T11:53:21;100801.41;;;21.14;76.87
70781;BME280;59514;48.810;2.134;2022-07-23T11:55:47;100799.34;;;20.91;76.20
70781;BME280;59514;48.810;2.134;2022-07-23T11:58:12;100787.06;;;20.88;76.36
70781;BME280;59514;48.810;2.134;2022-07-23T12:00:40;100794.63;;;21.06;76.68
70781;BME280;59514;48.810;2.134;2022-07-23T12:03:06;100793.56;;;21.07;76.03
70781;BME280;59514;48.810;2.134;2022-07-23T12:05:35;100801.50;;;20.99;76.07
70781;BME280;59514;48.810;2.134;2022-07-23T12:08:02;100801.06;;;21.25;75.32
70781;BME280;59514;48.810;2.134;2022-07-23T12:10:40;100804.50;;;21.41;74.92
70781;BME280;59514;48.810;2.134;2022-07-23T12:13:14;100791.00;;;21.50;74.71
70781;BME280;59514;48.810;2.134;2022-07-23T12:15:45;100788.56;;;21.14;75.96
70781;BME280;59514;48.810;2.134;2022-07-23T12:18:13;100796.09;;;21.32;75.63
70781;BME280;59514;48.810;2.134;2022-07-23T12:20:44;100799.59;;;21.38;74.30
70781;BME280;59514;48.810;2.134;2022-07-23T12:23:13;100797.66;;;21.43;74.25
70781;BME280;59514;48.810;2.134;2022-07-23T12:25:41;100797.72;;;21.67;73.83
70781;BME280;59514;48.810;2.134;2022-07-23T12:28:16;100794.13;;;22.00;71.98
70781;BME280;59514;48.810;2.134;2022-07-23T12:30:46;100793.75;;;22.54;69.84
70781;BME280;59514;48.810;2.134;2022-07-23T12:33:21;100786.84;;;22.38;70.42
70781;BME280;59514;48.810;2.134;2022-07-23T12:35:48;100790.09;;;22.40;69.52
70781;BME280;59514;48.810;2.134;2022-07-23T12:38:16;100785.84;;;23.46;64.73
70781;BME280;59514;48.810;2.134;2022-07-23T12:40:52;100777.06;;;24.22;61.68
70781;BME280;59514;48.810;2.134;2022-07-23T12:43:32;100776.50;;;25.10;59.14
70781;BME280;59514;48.810;2.134;2022-07-23T12:46:10;100772.66;;;23.48;62.81
70781;BME280;59514;48.810;2.134;2022-07-23T12:48:38;100768.09;;;24.03;61.86
70781;BME280;59514;48.810;2.134;2022-07-23T12:51:06;100770.75;;;24.35;60.72
70781;BME280;59514;48.810;2.134;2022-07-23T12:56:11;100772.59;;;25.77;55.50
70781;BME280;59514;48.810;2.134;2022-07-23T13:01:09;100758.22;;;25.05;57.41
70781;BME280;59514;48.810;2.134;2022-07-23T13:03:38;100754.22;;;25.86;55.75
70781;BME280;59514;48.810;2.134;2022-07-23T13:06:06;100757.38;;;25.05;56.79
70781;BME280;59514;48.810;2.134;2022-07-23T13:08:33;100754.09;;;24.31;59.00
70781;BME280;59514;48.810;2.134;2022-07-23T13:10:59;100754.69;;;24.42;58.12
70781;BME280;59514;48.810;2.134;2022-07-23T13:13:27;100745.16;;;25.11;57.19
70781;BME280;59514;48.810;2.134;2022-07-23T13:15:53;100747.91;;;25.11;56.52
70781;BME280;59514;48.810;2.134;2022-07-23T13:18:19;100746.09;;;25.28;57.17
70781;BME280;59514;48.810;2.134;2022-07-23T13:20:46;100741.44;;;25.59;55.55
70781;BME280;59514;48.810;2.134;2022-07-23T13:23:12;100734.16;;;25.55;55.57
70781;BME280;59514;48.810;2.134;2022-07-23T13:25:38;100743.53;;;25.93;54.64
70781;BME280;59514;48.810;2.134;2022-07-23T13:28:03;100753.06;;;26.18;54.39
70781;BME280;59514;48.810;2.134;2022-07-23T13:30:29;100748.78;;;26.42;52.54
70781;BME280;59514;48.810;2.134;2022-07-23T13:32:55;100742.63;;;26.63;52.51
70781;BME280;59514;48.810;2.134;2022-07-23T13:35:20;100748.56;;;25.91;54.75
70781;BME280;59514;48.810;2.134;2022-07-23T13:37:45;100745.53;;;26.49;53.11
70781;BME280;59514;48.810;2.134;2022-07-23T13:40:11;100759.06;;;25.89;53.59